createdAt,value
2023-05-01T00:02:02.409Z,2.47
2023-05-01T00:04:29.635Z,2.33
2023-05-01T00:06:56.528Z,2.40
2023-05-01T00:09:23.401Z,2.10
2023-05-01T00:11:51.316Z,2.20
2023-05-01T00:14:18.206Z,2.20
2023-05-01T00:16:47.448Z,2.35
2023-05-01T00:19:18.517Z,2.10
2023-05-01T00:21:48.773Z,2.15
2023-05-01T00:24:17.332Z,2.20
2023-05-01T00:26:45.688Z,2.50
2023-05-01T00:29:12.570Z,2.10
2023-05-01T00:31:41.737Z,1.92
2023-05-01T00:34:08.893Z,2.10
2023-05-01T00:36:41.009Z,2.10
2023-05-01T00:39:08.089Z,1.88
2023-05-01T00:41:37.887Z,2.35
2023-05-01T00:44:04.839Z,2.00
2023-05-01T00:46:34.423Z,2.00
2023-05-01T00:49:03.129Z,2.30
2023-05-01T00:51:30.235Z,1.98
2023-05-01T00:54:00.377Z,2.03
2023-05-01T00:56:28.110Z,1.95
2023-05-01T00:58:58.973Z,2.00
2023-05-01T01:01:30.660Z,2.60
2023-05-01T01:03:57.751Z,2.38
2023-05-01T01:07:25.906Z,2.20
2023-05-01T01:09:59.053Z,2.33
2023-05-01T01:12:39.540Z,2.10
2023-05-01T01:15:33.983Z,2.42
2023-05-01T01:18:09.685Z,2.20
2023-05-01T01:21:01.561Z,2.05
2023-05-01T01:23:42.427Z,1.90
2023-05-01T01:26:50.548Z,2.08
2023-05-01T01:29:26.335Z,2.00
2023-05-01T01:32:45.260Z,2.10
2023-05-01T01:35:20.098Z,2.03
2023-05-01T01:37:50.068Z,2.10
2023-05-01T01:40:21.667Z,2.40
2023-05-01T01:42:55.534Z,2.13
2023-05-01T01:45:24.558Z,2.28
2023-05-01T01:47:54.448Z,2.75
2023-05-01T01:50:26.099Z,3.08
2023-05-01T01:52:54.654Z,3.40
2023-05-01T01:55:25.588Z,3.92
2023-05-01T01:57:53.350Z,3.95
2023-05-01T02:00:20.846Z,3.72
2023-05-01T02:02:50.921Z,5.18
2023-05-01T02:05:19.609Z,5.93
2023-05-01T02:07:49.202Z,6.90
2023-05-01T02:10:18.998Z,6.38
2023-05-01T02:12:50.689Z,5.35
2023-05-01T02:15:22.080Z,3.50
2023-05-01T02:17:50.691Z,2.63
2023-05-01T02:20:19.010Z,2.20
2023-05-01T02:22:47.553Z,2.35
2023-05-01T02:25:16.775Z,2.53
2023-05-01T02:28:08.162Z,2.75
2023-05-01T02:30:35.164Z,2.67
2023-05-01T02:33:02.054Z,2.60
2023-05-01T02:35:28.866Z,2.25
2023-05-01T02:37:55.669Z,2.20
2023-05-01T02:40:22.676Z,2.35
2023-05-01T02:42:51.719Z,2.95
2023-05-01T02:45:20.790Z,2.25
2023-05-01T02:47:53.013Z,2.85
2023-05-01T02:50:22.543Z,2.45
2023-05-01T02:52:51.580Z,2.25
2023-05-01T02:55:18.583Z,2.95
2023-05-01T02:57:51.372Z,2.90
2023-05-01T03:00:19.465Z,2.78
2023-05-01T03:02:46.834Z,2.47
2023-05-01T03:05:14.065Z,2.97
2023-05-01T03:07:41.149Z,2.33
2023-05-01T03:10:10.582Z,2.67
2023-05-01T03:12:37.433Z,2.70
2023-05-01T03:15:08.588Z,2.58
2023-05-01T03:17:35.562Z,2.47
2023-05-01T03:20:02.851Z,2.40
2023-05-01T03:22:33.155Z,2.53
2023-05-01T03:25:01.618Z,2.58
2023-05-01T03:27:28.413Z,1.90
2023-05-01T03:29:57.825Z,2.78
2023-05-01T03:32:24.957Z,2.63
2023-05-01T03:34:53.254Z,2.72
2023-05-01T03:37:20.199Z,2.25
2023-05-01T03:39:47.358Z,2.72
2023-05-01T03:42:14.214Z,2.53
2023-05-01T03:44:41.011Z,2.70
2023-05-01T03:47:07.898Z,2.60
2023-05-01T03:49:34.734Z,2.30
2023-05-01T03:52:03.204Z,2.88
2023-05-01T03:54:31.277Z,2.70
2023-05-01T03:56:58.697Z,2.80
2023-05-01T03:59:25.916Z,2.47
2023-05-01T04:01:53.117Z,2.47
2023-05-01T04:04:20.066Z,2.70
2023-05-01T04:06:49.924Z,2.72
2023-05-01T04:09:24.730Z,2.50
2023-05-01T04:11:51.761Z,2.55
2023-05-01T04:14:20.398Z,2.33
2023-05-01T04:16:49.551Z,2.88
2023-05-01T04:19:17.169Z,2.80
2023-05-01T04:21:46.836Z,2.92
2023-05-01T04:24:13.812Z,2.70
2023-05-01T04:26:43.149Z,3.00
2023-05-01T04:29:10.076Z,2.58
2023-05-01T04:31:37.031Z,2.60
2023-05-01T04:34:03.940Z,2.83
2023-05-01T04:36:33.025Z,2.83
2023-05-01T04:38:59.897Z,2.50
2023-05-01T04:41:27.275Z,3.40
2023-05-01T04:43:54.079Z,2.88
2023-05-01T04:46:22.221Z,3.13
2023-05-01T04:48:49.044Z,2.90
2023-05-01T04:51:16.831Z,2.55
2023-05-01T04:53:45.289Z,3.13
2023-05-01T04:56:12.208Z,2.70
2023-05-01T04:58:39.155Z,3.15
2023-05-01T05:01:06.147Z,2.42
2023-05-01T05:03:33.297Z,2.92
2023-05-01T05:06:02.689Z,2.65
2023-05-01T05:08:29.822Z,3.03
2023-05-01T05:11:00.649Z,3.03
2023-05-01T05:13:28.316Z,2.80
2023-05-01T05:15:55.619Z,2.65
2023-05-01T05:18:23.072Z,2.95
2023-05-01T05:20:50.228Z,2.88
2023-05-01T05:23:17.117Z,2.55
2023-05-01T05:25:46.739Z,3.05
2023-05-01T05:28:13.545Z,2.65
2023-05-01T05:30:41.745Z,2.88
2023-05-01T05:33:09.400Z,2.75
2023-05-01T05:35:41.373Z,2.58
2023-05-01T05:38:08.224Z,3.20
2023-05-01T05:40:34.969Z,3.00
2023-05-01T05:43:01.954Z,2.90
2023-05-01T05:45:30.223Z,2.95
2023-05-01T05:47:57.498Z,2.53
2023-05-01T05:50:24.708Z,2.85
2023-05-01T05:52:52.870Z,3.13
2023-05-01T05:55:19.917Z,3.20
2023-05-01T05:57:46.686Z,3.00
2023-05-01T06:00:15.121Z,3.03
2023-05-01T06:02:43.501Z,3.30
2023-05-01T06:05:11.688Z,3.03
2023-05-01T06:07:39.105Z,3.00
2023-05-01T06:10:06.855Z,3.53
2023-05-01T06:12:36.345Z,3.15
2023-05-01T06:15:05.450Z,3.42
2023-05-01T06:17:32.707Z,2.70
2023-05-01T06:20:01.697Z,3.00
2023-05-01T06:22:28.722Z,3.00
2023-05-01T06:24:57.430Z,3.13
2023-05-01T06:27:24.708Z,3.22
2023-05-01T06:29:51.485Z,3.38
2023-05-01T06:32:18.768Z,3.28
2023-05-01T06:34:47.313Z,3.20
2023-05-01T06:37:19.731Z,2.78
2023-05-01T06:39:49.171Z,3.15
2023-05-01T06:42:17.063Z,2.85
2023-05-01T06:44:44.560Z,2.70
2023-05-01T06:47:13.153Z,2.85
2023-05-01T06:49:40.043Z,3.20
2023-05-01T06:52:06.860Z,3.30
2023-05-01T06:54:33.772Z,3.00
2023-05-01T06:57:03.423Z,3.38
2023-05-01T06:59:30.236Z,3.10
2023-05-01T07:01:57.126Z,3.10
2023-05-01T07:04:27.006Z,2.72
2023-05-01T07:06:54.136Z,3.05
2023-05-01T07:09:23.015Z,2.88
2023-05-01T07:11:51.277Z,2.85
2023-05-01T07:14:18.447Z,3.40
2023-05-01T07:16:48.832Z,3.00
2023-05-01T07:19:15.714Z,3.17
2023-05-01T07:21:42.550Z,3.22
2023-05-01T07:24:12.750Z,3.67
2023-05-01T07:26:41.080Z,3.47
2023-05-01T07:29:07.902Z,3.55
2023-05-01T07:31:37.950Z,3.58
2023-05-01T07:34:06.236Z,3.50
2023-05-01T07:36:34.281Z,3.72
2023-05-01T07:39:02.224Z,3.30
2023-05-01T07:41:29.061Z,3.30
2023-05-01T07:43:58.667Z,3.05
2023-05-01T07:46:27.315Z,3.10
2023-05-01T07:48:56.522Z,3.35
2023-05-01T07:51:25.241Z,2.65
2023-05-01T07:53:53.184Z,3.50
2023-05-01T07:56:20.065Z,3.22
2023-05-01T07:58:47.612Z,3.17
2023-05-01T08:01:14.573Z,2.85
2023-05-01T08:03:41.824Z,3.15
2023-05-01T08:06:08.764Z,3.03
2023-05-01T08:08:35.718Z,3.13
2023-05-01T08:11:03.996Z,2.90
2023-05-01T08:13:31.118Z,3.30
2023-05-01T08:16:04.662Z,3.22
2023-05-01T08:18:32.359Z,3.20
2023-05-01T08:21:00.275Z,3.08
2023-05-01T08:23:28.208Z,3.33
2023-05-01T08:25:55.806Z,2.70
2023-05-01T08:28:23.624Z,2.97
2023-05-01T08:30:50.697Z,2.70
2023-05-01T08:33:18.413Z,2.78
2023-05-01T08:35:46.219Z,2.95
2023-05-01T08:38:14.309Z,2.80
2023-05-01T08:40:47.145Z,2.85
2023-05-01T08:43:14.599Z,3.00
2023-05-01T08:45:44.634Z,3.42
2023-05-01T08:48:15.885Z,3.00
2023-05-01T08:50:48.084Z,3.22
2023-05-01T08:53:18.785Z,2.92
2023-05-01T08:55:49.243Z,2.67
2023-05-01T08:58:18.401Z,2.83
2023-05-01T09:00:50.235Z,3.00
2023-05-01T09:03:20.401Z,3.03
2023-05-01T09:05:47.470Z,2.97
2023-05-01T09:08:15.475Z,3.08
2023-05-01T09:10:48.334Z,3.30
2023-05-01T09:13:15.295Z,3.13
2023-05-01T09:15:42.346Z,2.90
2023-05-01T09:18:09.577Z,3.13
2023-05-01T09:20:37.945Z,3.28
2023-05-01T09:23:05.034Z,3.00
2023-05-01T09:25:31.968Z,3.20
2023-05-01T09:27:59.106Z,3.35
2023-05-01T09:30:38.202Z,3.38
2023-05-01T09:33:17.944Z,2.90
2023-05-01T09:35:58.955Z,3.28
2023-05-01T09:38:28.106Z,2.97
2023-05-01T09:41:03.335Z,3.30
2023-05-01T09:43:31.743Z,2.90
2023-05-01T09:46:12.217Z,3.03
2023-05-01T09:48:39.243Z,3.00
2023-05-01T09:51:23.857Z,2.50
2023-05-01T09:53:52.478Z,2.72
2023-05-01T09:56:24.453Z,3.42
2023-05-01T09:58:53.976Z,3.00
2023-05-01T10:01:41.213Z,3.20
2023-05-01T10:04:10.275Z,2.83
2023-05-01T10:06:40.234Z,3.17
2023-05-01T10:09:16.937Z,2.92
2023-05-01T10:11:54.667Z,3.10
2023-05-01T10:14:27.236Z,3.10
2023-05-01T10:16:54.395Z,3.38
2023-05-01T10:19:22.992Z,3.05
2023-05-01T10:21:50.151Z,3.00
2023-05-01T10:24:18.944Z,2.90
2023-05-01T10:26:49.204Z,2.70
2023-05-01T10:29:16.492Z,2.63
2023-05-01T10:31:44.254Z,2.50
2023-05-01T10:34:16.535Z,2.80
2023-05-01T10:36:51.078Z,2.70
2023-05-01T10:39:34.614Z,2.95
2023-05-01T10:42:03.910Z,3.30
2023-05-01T10:44:31.589Z,2.88
2023-05-01T10:46:58.697Z,2.45
2023-05-01T10:49:25.809Z,2.50
2023-05-01T10:52:00.021Z,2.45
2023-05-01T10:54:32.527Z,2.35
2023-05-01T10:57:03.776Z,2.80
2023-05-01T11:00:04.957Z,2.42
2023-05-01T11:02:32.116Z,2.50
2023-05-01T11:05:02.629Z,2.38
2023-05-01T11:07:33.147Z,2.60
2023-05-01T11:10:02.560Z,2.30
2023-05-01T11:12:51.345Z,2.60
2023-05-01T11:15:32.836Z,2.45
2023-05-01T11:18:03.742Z,2.75
2023-05-01T11:20:36.767Z,2.95
2023-05-01T11:23:03.812Z,2.60
2023-05-01T11:25:31.571Z,2.42
2023-05-01T11:28:03.314Z,2.45
2023-05-01T11:30:37.876Z,2.60
2023-05-01T11:33:07.728Z,2.60
2023-05-01T11:35:36.494Z,2.97
2023-05-01T11:38:03.573Z,2.40
2023-05-01T11:40:33.201Z,2.67
2023-05-01T11:43:02.458Z,2.55
2023-05-01T11:45:29.964Z,2.60
2023-05-01T11:47:57.165Z,2.55
2023-05-01T11:50:38.926Z,2.13
2023-05-01T11:53:13.176Z,2.67
2023-05-01T11:55:40.553Z,2.83
2023-05-01T11:58:10.119Z,2.72
2023-05-01T12:00:42.314Z,2.40
2023-05-01T12:03:14.764Z,2.70
2023-05-01T12:05:46.622Z,2.80
2023-05-01T12:08:24.201Z,2.70
2023-05-01T12:10:57.654Z,3.08
2023-05-01T12:13:25.343Z,2.80
2023-05-01T12:15:54.893Z,2.95
2023-05-01T12:18:22.231Z,2.70
2023-05-01T12:20:54.666Z,2.10
2023-05-01T12:23:35.371Z,2.20
2023-05-01T12:26:03.620Z,1.63
2023-05-01T12:28:31.355Z,1.65
2023-05-01T12:31:06.809Z,2.03
2023-05-01T12:33:33.676Z,1.90
2023-05-01T12:36:11.899Z,2.05
2023-05-01T12:38:38.920Z,1.90
2023-05-01T12:41:09.580Z,2.25
2023-05-01T12:43:38.693Z,2.00
2023-05-01T12:46:07.190Z,2.17
2023-05-01T12:48:39.219Z,2.30
2023-05-01T12:51:07.507Z,2.30
2023-05-01T12:53:34.542Z,2.05
2023-05-01T12:56:03.730Z,2.60
2023-05-01T12:58:37.789Z,3.28
2023-05-01T13:01:05.212Z,3.30
2023-05-01T13:03:33.734Z,3.03
2023-05-01T13:06:04.190Z,2.80
2023-05-01T13:08:31.898Z,2.50
2023-05-01T13:11:01.416Z,2.47
2023-05-01T13:13:30.706Z,2.80
2023-05-01T13:16:10.404Z,2.67
2023-05-01T13:18:51.765Z,3.03
2023-05-01T13:21:23.250Z,2.80
2023-05-01T13:23:59.326Z,2.75
2023-05-01T13:26:37.341Z,3.25
2023-05-01T13:29:06.109Z,2.75
2023-05-01T13:31:34.552Z,2.67
2023-05-01T13:34:04.155Z,2.85
2023-05-01T13:36:34.776Z,2.75
2023-05-01T13:39:20.773Z,2.80
2023-05-01T13:41:48.904Z,2.42
2023-05-01T13:44:17.512Z,2.33
2023-05-01T13:46:48.405Z,2.53
2023-05-01T13:49:23.275Z,2.45
2023-05-01T13:51:50.526Z,2.20
2023-05-01T13:54:18.080Z,2.40
2023-05-01T13:56:47.526Z,2.08
2023-05-01T13:59:15.590Z,2.28
2023-05-01T14:01:46.330Z,2.45
2023-05-01T14:04:21.322Z,2.70
2023-05-01T14:06:50.495Z,2.35
2023-05-01T14:09:36.505Z,2.65
2023-05-01T14:12:08.032Z,2.55
2023-05-01T14:14:36.276Z,2.97
2023-05-01T14:17:06.204Z,2.47
2023-05-01T14:19:33.200Z,2.50
2023-05-01T14:22:03.797Z,2.85
2023-05-01T14:24:31.009Z,2.88
2023-05-01T14:26:57.919Z,2.83
2023-05-01T14:29:29.849Z,2.40
2023-05-01T14:32:03.881Z,2.67
2023-05-01T14:34:31.476Z,2.35
2023-05-01T14:37:02.590Z,2.28
2023-05-01T14:39:32.996Z,2.40
2023-05-01T14:42:00.492Z,2.42
2023-05-01T14:44:31.020Z,2.40
2023-05-01T14:46:59.016Z,2.63
2023-05-01T14:49:26.444Z,2.17
2023-05-01T14:51:54.553Z,2.03
2023-05-01T14:54:21.400Z,2.15
2023-05-01T14:56:48.888Z,2.50
2023-05-01T14:59:16.446Z,1.98
2023-05-01T15:01:45.468Z,2.20
2023-05-01T15:04:16.366Z,2.28
2023-05-01T15:06:43.546Z,2.10
2023-05-01T15:09:13.454Z,2.10
2023-05-01T15:11:41.397Z,2.00
2023-05-01T15:14:08.676Z,2.00
2023-05-01T15:16:37.249Z,1.90
2023-05-01T15:19:04.195Z,2.03
2023-05-01T15:21:33.622Z,2.00
2023-05-01T15:24:00.798Z,1.90
2023-05-01T15:26:27.609Z,1.88
2023-05-01T15:28:54.397Z,2.50
2023-05-01T15:31:21.880Z,2.30
2023-05-01T15:33:48.717Z,2.42
2023-05-01T15:36:15.505Z,2.65
2023-05-01T15:38:42.309Z,3.00
2023-05-01T15:41:09.109Z,3.35
2023-05-01T15:43:36.075Z,3.08
2023-05-01T15:46:03.324Z,3.15
2023-05-01T15:48:30.241Z,3.78
2023-05-01T15:50:57.063Z,3.65
2023-05-01T15:53:24.967Z,4.53
2023-05-01T15:55:58.139Z,4.20
2023-05-01T15:58:25.070Z,4.97
2023-05-01T16:00:52.039Z,4.68
2023-05-01T16:03:19.209Z,4.30
2023-05-01T16:05:47.645Z,4.90
2023-05-01T16:08:15.966Z,4.40
2023-05-01T16:10:44.286Z,3.92
2023-05-01T16:13:13.528Z,4.30
2023-05-01T16:15:40.397Z,4.72
2023-05-01T16:18:08.230Z,4.40
2023-05-01T16:20:41.415Z,4.40
2023-05-01T16:23:09.124Z,4.30
2023-05-01T16:25:38.242Z,4.78
2023-05-01T16:28:06.244Z,6.18
2023-05-01T16:30:33.413Z,5.47
2023-05-01T16:33:03.246Z,4.53
2023-05-01T16:35:30.249Z,5.18
2023-05-01T16:38:00.606Z,4.68
2023-05-01T16:40:27.632Z,3.90
2023-05-01T16:42:55.221Z,3.88
2023-05-01T16:45:22.580Z,3.80
2023-05-01T16:47:50.319Z,3.28
2023-05-01T16:50:19.445Z,3.63
2023-05-01T16:52:47.542Z,3.30
2023-05-01T16:55:18.132Z,3.17
2023-05-01T16:57:46.670Z,3.75
2023-05-01T17:00:14.990Z,4.00
2023-05-01T17:02:49.764Z,6.15
2023-05-01T17:05:17.807Z,5.28
2023-05-01T17:07:46.970Z,4.90
2023-05-01T17:10:16.372Z,3.95
2023-05-01T17:12:49.955Z,5.55
2023-05-01T17:15:17.287Z,3.97
2023-05-01T17:17:44.865Z,4.22
2023-05-01T17:20:12.490Z,4.05
2023-05-01T17:22:40.619Z,4.10
2023-05-01T17:25:08.063Z,3.20
2023-05-01T17:27:37.238Z,3.88
2023-05-01T17:30:14.308Z,4.10
2023-05-01T17:32:42.368Z,4.15
2023-05-01T17:35:10.551Z,3.90
2023-05-01T17:37:39.962Z,3.70
2023-05-01T17:40:09.639Z,4.32
2023-05-01T17:42:38.207Z,4.50
2023-05-01T17:45:07.566Z,4.10
2023-05-01T17:47:35.486Z,4.53
2023-05-01T17:50:07.952Z,3.95
2023-05-01T17:52:36.368Z,4.47
2023-05-01T17:55:04.756Z,5.18
2023-05-01T17:57:32.574Z,5.55
2023-05-01T18:00:00.262Z,5.38
2023-05-01T18:02:27.520Z,5.05
2023-05-01T18:04:55.355Z,4.90
2023-05-01T18:07:22.356Z,4.55
2023-05-01T18:09:49.198Z,5.53
2023-05-01T18:12:16.530Z,5.22
2023-05-01T18:14:45.912Z,5.18
2023-05-01T18:17:12.774Z,5.50
2023-05-01T18:19:39.978Z,5.28
2023-05-01T18:22:08.692Z,5.18
2023-05-01T18:24:42.031Z,5.70
2023-05-01T18:27:09.832Z,5.72
2023-05-01T18:29:37.558Z,5.57
2023-05-01T18:32:04.644Z,9.32
2023-05-01T18:34:32.023Z,7.28
2023-05-01T18:36:59.224Z,7.40
2023-05-01T18:39:26.100Z,6.32
2023-05-01T18:41:55.075Z,6.53
2023-05-01T18:44:21.937Z,6.30
2023-05-01T18:46:51.171Z,6.22
2023-05-01T18:49:23.552Z,6.05
2023-05-01T18:51:52.095Z,6.63
2023-05-01T18:54:19.182Z,8.23
2023-05-01T18:56:46.726Z,6.28
2023-05-01T18:59:13.486Z,6.50
2023-05-01T19:01:40.325Z,6.65
2023-05-01T19:04:07.488Z,6.25
2023-05-01T19:06:34.800Z,7.72
2023-05-01T19:09:04.780Z,7.47
2023-05-01T19:11:32.462Z,6.95
2023-05-01T19:13:59.521Z,7.47
2023-05-01T19:16:26.916Z,6.90
2023-05-01T19:18:53.759Z,6.95
2023-05-01T19:21:21.702Z,6.78
2023-05-01T19:23:50.173Z,6.63
2023-05-01T19:26:17.528Z,6.90
2023-05-01T19:28:47.821Z,6.57
2023-05-01T19:31:19.586Z,7.45
2023-05-01T19:33:51.204Z,6.65
2023-05-01T19:36:18.043Z,7.70
2023-05-01T19:38:48.100Z,6.85
2023-05-01T19:41:15.961Z,6.50
2023-05-01T19:43:42.815Z,6.47
2023-05-01T19:46:10.079Z,6.28
2023-05-01T19:48:37.132Z,7.10
2023-05-01T19:51:04.491Z,6.60
2023-05-01T19:53:31.337Z,7.47
2023-05-01T19:55:58.821Z,11.30
2023-05-01T19:58:29.658Z,13.70
2023-05-01T20:01:02.456Z,14.98
2023-05-01T20:03:30.173Z,14.98
2023-05-01T20:05:56.968Z,10.23
2023-05-01T20:08:23.821Z,9.38
2023-05-01T20:10:50.701Z,9.68
2023-05-01T20:13:17.502Z,10.40
2023-05-01T20:15:47.385Z,10.20
2023-05-01T20:18:15.656Z,9.88
2023-05-01T20:20:42.927Z,9.43
2023-05-01T20:23:18.996Z,8.60
2023-05-01T20:25:48.594Z,9.32
2023-05-01T20:28:17.147Z,9.18
2023-05-01T20:30:46.628Z,9.25
2023-05-01T20:33:14.081Z,8.63
2023-05-01T20:35:41.123Z,8.10
2023-05-01T20:38:08.109Z,8.30
2023-05-01T20:40:37.513Z,8.88
2023-05-01T20:43:04.376Z,8.25
2023-05-01T20:45:31.619Z,8.85
2023-05-01T20:48:00.071Z,10.15
2023-05-01T20:50:27.941Z,8.65
2023-05-01T20:52:55.365Z,8.82
2023-05-01T20:55:27.442Z,8.75
2023-05-01T20:57:54.325Z,8.77
2023-05-01T21:00:21.597Z,9.88
2023-05-01T21:02:48.604Z,9.73
2023-05-01T21:05:16.480Z,9.25
2023-05-01T21:07:43.347Z,9.40
2023-05-01T21:10:11.172Z,9.43
2023-05-01T21:12:38.820Z,9.93
2023-05-01T21:15:06.097Z,9.57
2023-05-01T21:17:34.851Z,10.07
2023-05-01T21:20:05.727Z,9.88
2023-05-01T21:22:33.630Z,9.68
2023-05-01T21:25:01.771Z,9.43
2023-05-01T21:27:28.608Z,9.75
2023-05-01T21:29:59.332Z,11.18
2023-05-01T21:32:33.907Z,11.18
2023-05-01T21:35:02.037Z,10.05
2023-05-01T21:37:29.388Z,10.82
2023-05-01T21:39:59.640Z,9.50
2023-05-01T21:42:39.295Z,10.75
2023-05-01T21:45:12.657Z,11.65
2023-05-01T21:47:42.177Z,11.05
2023-05-01T21:50:12.294Z,10.73
2023-05-01T21:52:41.445Z,11.57
2023-05-01T21:55:10.614Z,12.48
2023-05-01T21:57:39.538Z,12.30
2023-05-01T22:00:09.822Z,13.00
2023-05-01T22:02:40.975Z,15.05
2023-05-01T22:05:09.138Z,14.82
2023-05-01T22:07:41.745Z,17.38
2023-05-01T22:10:09.872Z,17.60
2023-05-01T22:12:36.735Z,18.63
2023-05-01T22:15:03.819Z,18.85
2023-05-01T22:17:30.862Z,18.00
2023-05-01T22:19:57.820Z,18.08
2023-05-01T22:22:27.243Z,19.83
2023-05-01T22:24:54.115Z,19.67
2023-05-01T22:27:20.907Z,20.80
2023-05-01T22:29:47.770Z,20.92
2023-05-01T22:32:16.608Z,19.77
2023-05-01T22:34:44.903Z,20.23
2023-05-01T22:37:12.042Z,20.45
2023-05-01T22:39:39.302Z,19.20
2023-05-01T22:42:06.495Z,19.17
2023-05-01T22:44:33.510Z,20.60
2023-05-01T22:47:01.704Z,20.95
2023-05-01T22:49:28.950Z,20.85
2023-05-01T22:51:57.362Z,21.40
2023-05-01T22:54:24.931Z,21.08
2023-05-01T22:56:54.835Z,21.30
2023-05-01T22:59:21.952Z,22.70
2023-05-01T23:01:48.937Z,21.70
2023-05-01T23:04:16.153Z,21.05
2023-05-01T23:06:45.885Z,21.55
2023-05-01T23:09:12.904Z,20.55
2023-05-01T23:11:41.833Z,20.90
2023-05-01T23:14:08.713Z,22.75
2023-05-01T23:16:43.275Z,23.73
2023-05-01T23:19:20.351Z,22.90
2023-05-01T23:21:48.116Z,23.58
2023-05-01T23:24:20.122Z,26.45
2023-05-01T23:26:47.653Z,25.67
2023-05-01T23:29:16.255Z,24.50
2023-05-01T23:31:48.007Z,25.67
2023-05-01T23:34:17.228Z,28.98
2023-05-01T23:36:47.813Z,25.90
2023-05-01T23:39:16.260Z,29.27
2023-05-01T23:41:43.495Z,28.88
2023-05-01T23:44:11.411Z,29.20
2023-05-01T23:46:38.584Z,29.02
2023-05-01T23:49:05.627Z,30.00
2023-05-01T23:51:32.979Z,31.52
2023-05-01T23:54:00.568Z,28.65
2023-05-01T23:56:27.629Z,32.75
2023-05-01T23:58:54.539Z,32.63
